createdAt,value
2023-09-17T05:33:58.505Z,17.92
2023-09-17T05:36:26.461Z,15.02
2023-09-17T05:38:58.428Z,16.17
2023-09-17T05:43:29.801Z,19.13
2023-09-17T05:45:57.957Z,19.73
2023-09-17T05:48:32.487Z,16.33
2023-09-17T05:51:00.461Z,13.85
2023-09-17T05:53:32.345Z,13.45
2023-09-17T05:55:59.844Z,13.75
2023-09-17T05:58:27.480Z,17.58
2023-09-17T06:03:38.905Z,15.90
2023-09-17T06:15:31.035Z,20.88
2023-09-17T06:34:56.171Z,22.85
2023-09-17T06:37:23.660Z,25.73
2023-09-17T06:39:51.296Z,27.23
2023-09-17T06:42:18.592Z,23.95
2023-09-17T06:44:46.628Z,21.60
2023-09-17T06:47:15.363Z,19.52
2023-09-17T06:49:42.853Z,25.63
2023-09-17T06:52:10.256Z,24.80
2023-09-17T06:54:37.576Z,19.30
2023-09-17T06:57:04.999Z,21.60
2023-09-17T06:59:32.297Z,20.08
2023-09-17T07:01:59.781Z,21.10
2023-09-17T07:04:27.152Z,19.23
2023-09-17T07:06:55.756Z,20.02
2023-09-17T07:09:23.163Z,18.88
2023-09-17T07:11:50.448Z,18.08
2023-09-17T07:14:17.796Z,18.02
2023-09-17T07:16:45.914Z,18.42
2023-09-17T07:19:13.296Z,17.58
2023-09-17T07:21:40.639Z,21.63
2023-09-17T07:24:08.090Z,18.67
2023-09-17T07:26:35.546Z,15.73
2023-09-17T07:29:04.845Z,17.25
2023-09-17T07:31:32.484Z,17.77
2023-09-17T07:33:59.767Z,17.42
2023-09-17T07:36:27.323Z,14.15
2023-09-17T07:38:54.773Z,19.02
2023-09-17T07:41:22.202Z,14.82
2023-09-17T07:43:49.755Z,16.95
2023-09-17T07:46:17.322Z,22.35
2023-09-17T07:48:47.551Z,13.07
2023-09-17T07:51:15.214Z,15.23
2023-09-17T07:53:43.167Z,14.93
2023-09-17T07:56:11.553Z,13.98
2023-09-17T07:58:41.230Z,15.82
2023-09-17T08:01:08.774Z,15.35
2023-09-17T08:03:37.881Z,13.68
2023-09-17T08:06:06.614Z,14.52
2023-09-17T08:08:34.221Z,13.73
2023-09-17T08:11:01.529Z,16.23
2023-09-17T08:13:31.384Z,13.65
2023-09-17T08:15:58.861Z,14.32
2023-09-17T08:18:26.350Z,15.68
2023-09-17T08:20:53.766Z,14.25
2023-09-17T08:23:21.030Z,16.80
2023-09-17T08:25:48.608Z,14.63
2023-09-17T08:28:16.800Z,14.93
2023-09-17T08:30:45.537Z,14.38
2023-09-17T08:33:12.978Z,16.58
2023-09-17T08:35:40.931Z,15.00
2023-09-17T08:38:11.833Z,15.23
2023-09-17T08:40:42.327Z,13.50
2023-09-17T08:43:09.928Z,14.65
2023-09-17T08:45:37.194Z,12.70
2023-09-17T08:48:04.744Z,12.57
2023-09-17T08:50:33.523Z,13.82
2023-09-17T08:53:04.042Z,11.90
2023-09-17T08:55:32.702Z,13.13
2023-09-17T08:58:13.983Z,11.60
2023-09-17T09:00:43.386Z,12.13
2023-09-17T09:03:12.828Z,12.77
2023-09-17T09:05:41.282Z,12.68
2023-09-17T09:08:10.215Z,13.55
2023-09-17T09:10:37.700Z,12.60
2023-09-17T09:13:05.222Z,13.30
2023-09-17T09:15:32.590Z,11.18
2023-09-17T09:18:00.005Z,12.63
2023-09-17T09:20:27.777Z,13.38
2023-09-17T09:22:55.243Z,11.55
2023-09-17T09:25:22.635Z,9.60
2023-09-17T09:27:51.020Z,8.98
2023-09-17T09:30:18.317Z,9.10
2023-09-17T09:32:46.534Z,8.88
2023-09-17T09:35:13.987Z,10.45
2023-09-17T09:37:41.350Z,16.83
2023-09-17T09:40:09.108Z,11.60
2023-09-17T09:42:37.219Z,9.02
2023-09-17T09:45:04.827Z,10.43
2023-09-17T09:47:33.059Z,10.00
2023-09-17T09:50:02.255Z,9.40
2023-09-17T09:52:30.428Z,10.48
2023-09-17T09:54:58.070Z,10.82
2023-09-17T09:57:26.906Z,13.85
2023-09-17T09:59:54.848Z,10.35
2023-09-17T10:02:25.281Z,10.43
2023-09-17T10:04:53.699Z,10.73
2023-09-17T10:07:21.306Z,13.20
2023-09-17T10:09:48.829Z,9.05
2023-09-17T10:12:16.329Z,11.07
2023-09-17T10:14:43.988Z,10.02
2023-09-17T10:17:15.372Z,9.85
2023-09-17T10:19:43.524Z,8.57
2023-09-17T10:22:11.269Z,8.73
2023-09-17T10:24:39.058Z,8.68
2023-09-17T10:27:09.809Z,11.63
2023-09-17T10:29:39.625Z,8.73
2023-09-17T10:32:07.763Z,7.97
2023-09-17T10:34:39.166Z,11.20
2023-09-17T10:37:06.668Z,10.20
2023-09-17T10:39:34.860Z,11.05
2023-09-17T10:42:06.142Z,7.65
2023-09-17T10:44:37.861Z,9.10
2023-09-17T10:47:09.777Z,8.80
2023-09-17T10:49:37.987Z,8.05
2023-09-17T10:52:07.266Z,9.75
2023-09-17T10:54:34.616Z,10.60
2023-09-17T10:57:05.592Z,6.85
2023-09-17T10:59:33.155Z,8.68
2023-09-17T11:02:00.953Z,8.00
2023-09-17T11:04:29.379Z,8.32
2023-09-17T11:06:57.254Z,6.05
2023-09-17T11:09:24.470Z,7.20
2023-09-17T11:11:52.439Z,7.20
2023-09-17T11:14:19.766Z,7.20
2023-09-17T11:16:49.602Z,7.88
2023-09-17T11:19:18.001Z,7.28
2023-09-17T11:21:54.039Z,7.22
2023-09-17T11:24:24.188Z,11.75
2023-09-17T11:26:57.882Z,10.65
2023-09-17T11:29:50.641Z,7.68
2023-09-17T11:32:26.585Z,9.70
2023-09-17T11:34:55.714Z,7.38
2023-09-17T11:37:24.233Z,8.63
2023-09-17T11:39:52.355Z,8.30
2023-09-17T11:42:19.930Z,7.72
2023-09-17T11:44:49.538Z,7.68
2023-09-17T11:47:37.884Z,7.78
2023-09-17T11:50:07.236Z,7.15
2023-09-17T11:52:34.763Z,11.32
2023-09-17T11:55:13.038Z,6.55
2023-09-17T11:57:40.598Z,7.28
2023-09-17T12:00:11.083Z,7.65
2023-09-17T12:02:39.312Z,7.38
2023-09-17T12:05:06.909Z,9.10
2023-09-17T12:07:45.731Z,13.05
2023-09-17T12:10:28.049Z,7.93
2023-09-17T12:13:05.644Z,7.88
2023-09-17T12:15:34.263Z,9.35
2023-09-17T12:18:02.049Z,7.68
2023-09-17T12:20:53.852Z,8.23
2023-09-17T12:23:38.298Z,8.55
2023-09-17T12:26:31.808Z,8.13
2023-09-17T12:29:12.142Z,8.45
2023-09-17T12:31:40.225Z,8.60
2023-09-17T12:34:07.998Z,7.97
2023-09-17T12:36:35.373Z,10.18
2023-09-17T12:39:02.664Z,9.05
2023-09-17T12:41:40.489Z,8.55
2023-09-17T12:44:08.443Z,7.78
2023-09-17T12:46:35.912Z,7.70
2023-09-17T12:49:03.240Z,7.63
2023-09-17T12:51:33.153Z,9.65
2023-09-17T12:54:00.627Z,8.30
2023-09-17T12:56:34.790Z,9.68
2023-09-17T12:59:02.766Z,14.25
2023-09-17T13:01:31.748Z,9.73
2023-09-17T13:04:00.875Z,9.13
2023-09-17T13:06:36.745Z,7.97
2023-09-17T13:09:04.086Z,11.68
2023-09-17T13:11:32.221Z,7.65
2023-09-17T13:13:59.931Z,6.28
2023-09-17T13:16:27.267Z,6.72
2023-09-17T13:18:54.458Z,6.97
2023-09-17T13:21:22.018Z,9.05
2023-09-17T13:23:50.089Z,9.63
2023-09-17T13:26:17.626Z,8.55
2023-09-17T13:28:44.989Z,6.45
2023-09-17T13:31:12.442Z,8.82
2023-09-17T13:33:40.422Z,10.50
2023-09-17T13:36:11.877Z,7.03
2023-09-17T13:38:42.046Z,7.32
2023-09-17T13:41:09.582Z,9.30
2023-09-17T13:43:36.873Z,8.32
2023-09-17T13:46:04.284Z,9.30
2023-09-17T13:48:31.842Z,7.22
2023-09-17T13:50:59.116Z,7.63
2023-09-17T13:53:26.409Z,8.57
2023-09-17T13:55:53.701Z,7.22
2023-09-17T13:58:21.067Z,10.70
2023-09-17T14:00:48.535Z,11.73
2023-09-17T14:03:16.726Z,7.70
2023-09-17T14:05:44.610Z,7.82
2023-09-17T14:08:12.356Z,7.57
2023-09-17T14:10:42.442Z,7.90
2023-09-17T14:13:09.832Z,9.32
2023-09-17T14:15:37.980Z,9.25
2023-09-17T14:18:05.445Z,7.75
2023-09-17T14:20:32.734Z,6.82
2023-09-17T14:23:01.567Z,7.50
2023-09-17T14:25:28.852Z,8.52
2023-09-17T14:27:56.252Z,7.90
2023-09-17T14:30:23.694Z,7.28
2023-09-17T14:32:52.879Z,6.20
2023-09-17T14:35:20.461Z,7.10
2023-09-17T14:37:48.320Z,6.60
2023-09-17T14:40:16.974Z,6.70
2023-09-17T14:42:44.410Z,10.82
2023-09-17T14:45:11.713Z,6.88
2023-09-17T14:47:40.561Z,16.98
2023-09-17T14:50:11.437Z,7.28
2023-09-17T14:52:39.091Z,6.03
2023-09-17T14:55:06.731Z,9.05
2023-09-17T14:57:37.096Z,6.10
2023-09-17T15:00:06.047Z,9.20
2023-09-17T15:02:33.633Z,7.30
2023-09-17T15:05:02.089Z,7.93
2023-09-17T15:07:29.348Z,7.32
2023-09-17T15:09:56.543Z,9.10
2023-09-17T15:12:23.808Z,5.57
2023-09-17T15:14:51.611Z,7.35
2023-09-17T15:17:19.413Z,7.30
2023-09-17T15:19:46.810Z,6.20
2023-09-17T15:22:14.063Z,6.82
2023-09-17T15:24:41.348Z,6.72
2023-09-17T15:27:08.569Z,7.18
2023-09-17T15:29:35.907Z,6.13
2023-09-17T15:32:04.465Z,7.22
2023-09-17T15:34:32.050Z,7.03
2023-09-17T15:36:59.400Z,8.15
2023-09-17T15:39:26.727Z,10.85
2023-09-17T15:41:55.519Z,6.30
2023-09-17T15:44:24.058Z,7.05
2023-09-17T15:46:51.590Z,6.50
2023-09-17T15:49:18.926Z,7.00
2023-09-17T15:51:46.149Z,6.63
2023-09-17T15:54:13.541Z,6.70
2023-09-17T15:56:42.250Z,6.32
2023-09-17T15:59:13.738Z,6.55
2023-09-17T16:01:44.807Z,6.32
2023-09-17T16:04:12.237Z,7.80
2023-09-17T16:06:39.706Z,8.30
2023-09-17T16:09:07.089Z,7.65
2023-09-17T16:11:34.413Z,6.35
2023-09-17T16:14:01.690Z,7.28
2023-09-17T16:16:29.074Z,6.85
2023-09-17T16:18:59.089Z,9.23
2023-09-17T16:21:26.351Z,6.78
2023-09-17T16:23:54.187Z,6.13
2023-09-17T16:26:24.867Z,8.35
2023-09-17T16:28:52.102Z,7.38
2023-09-17T16:31:20.038Z,7.63
2023-09-17T16:33:47.422Z,7.63
2023-09-17T16:36:14.820Z,6.85
2023-09-17T16:38:42.244Z,6.68
2023-09-17T16:41:09.649Z,9.13
2023-09-17T16:43:36.979Z,7.43
